createdAt,value
2022-11-17T00:00:06.350Z,987.04
2022-11-17T00:00:16.378Z,987.02
2022-11-17T00:00:26.374Z,987.00
2022-11-17T00:00:36.353Z,987.06
2022-11-17T00:00:46.375Z,987.02
2022-11-17T00:00:56.349Z,987.03
2022-11-17T00:01:06.346Z,986.94
2022-11-17T00:01:16.370Z,987.00
2022-11-17T00:01:26.360Z,986.99
2022-11-17T00:01:36.359Z,987.00
2022-11-17T00:01:46.377Z,987.01
2022-11-17T00:01:57.413Z,987.01
2022-11-17T00:02:06.417Z,986.97
2022-11-17T00:02:16.454Z,986.99
2022-11-17T00:02:26.464Z,986.98
2022-11-17T00:02:36.418Z,986.99
2022-11-17T00:02:46.570Z,986.99
2022-11-17T00:02:56.379Z,987.00
2022-11-17T00:03:06.350Z,986.98
2022-11-17T00:03:16.412Z,986.97
2022-11-17T00:03:26.344Z,986.99
2022-11-17T00:03:36.682Z,986.98
2022-11-17T00:03:46.343Z,986.97
2022-11-17T00:03:59.340Z,986.98
2022-11-17T00:04:06.486Z,986.97
2022-11-17T00:04:16.345Z,986.94
2022-11-17T00:04:26.366Z,986.95
2022-11-17T00:04:36.373Z,986.96
2022-11-17T00:04:46.328Z,987.00
2022-11-17T00:04:56.336Z,986.96
2022-11-17T00:05:06.361Z,986.97
2022-11-17T00:05:16.345Z,986.98
2022-11-17T00:05:26.348Z,986.95
2022-11-17T00:05:36.332Z,986.93
2022-11-17T00:05:46.331Z,986.95
2022-11-17T00:05:56.340Z,986.97
2022-11-17T00:06:06.526Z,986.95
2022-11-17T00:06:16.338Z,986.90
2022-11-17T00:06:26.346Z,986.93
2022-11-17T00:06:36.328Z,986.95
2022-11-17T00:06:46.437Z,986.97
2022-11-17T00:06:56.411Z,986.96
2022-11-17T00:07:06.425Z,986.94
2022-11-17T00:07:16.352Z,986.91
2022-11-17T00:07:26.418Z,986.94
2022-11-17T00:07:36.389Z,986.93
2022-11-17T00:07:47.315Z,986.91
2022-11-17T00:07:56.395Z,986.91
2022-11-17T00:08:06.343Z,986.86
2022-11-17T00:08:16.442Z,986.90
2022-11-17T00:08:26.510Z,986.93
2022-11-17T00:08:36.317Z,986.93
2022-11-17T00:08:46.349Z,986.93
2022-11-17T00:08:56.332Z,986.90
2022-11-17T00:09:06.319Z,986.94
2022-11-17T00:09:16.345Z,986.86
2022-11-17T00:09:26.338Z,986.91
2022-11-17T00:09:36.326Z,986.88
2022-11-17T00:09:46.362Z,986.90
2022-11-17T00:09:56.386Z,986.89
2022-11-17T00:10:06.322Z,986.85
2022-11-17T00:10:16.853Z,986.89
2022-11-17T00:10:26.939Z,986.87
2022-11-17T00:10:36.309Z,986.91
2022-11-17T00:10:46.342Z,986.83
2022-11-17T00:10:56.349Z,986.87
2022-11-17T00:11:06.328Z,986.89
2022-11-17T00:11:16.335Z,986.86
2022-11-17T00:11:26.329Z,986.88
2022-11-17T00:11:36.308Z,986.88
2022-11-17T00:11:46.821Z,986.84
2022-11-17T00:11:56.306Z,986.86
2022-11-17T00:12:06.824Z,986.90
2022-11-17T00:12:22.096Z,986.86
2022-11-17T00:12:31.480Z,986.88
2022-11-17T00:12:36.329Z,986.85
2022-11-17T00:12:46.349Z,986.84
2022-11-17T00:12:56.315Z,986.81
2022-11-17T00:13:06.379Z,986.83
2022-11-17T00:13:16.316Z,986.87
2022-11-17T00:13:26.321Z,986.88
2022-11-17T00:13:36.667Z,986.91
2022-11-17T00:13:46.307Z,986.87
2022-11-17T00:13:56.306Z,986.88
2022-11-17T00:14:06.328Z,986.88
2022-11-17T00:14:16.324Z,986.87
2022-11-17T00:14:26.392Z,986.86
2022-11-17T00:14:36.293Z,986.89
2022-11-17T00:14:46.294Z,986.85
2022-11-17T00:14:56.297Z,986.84
2022-11-17T00:15:06.336Z,986.87
2022-11-17T00:15:16.312Z,986.88
2022-11-17T00:15:26.298Z,986.89
2022-11-17T00:15:36.344Z,986.85
2022-11-17T00:15:46.294Z,986.90
2022-11-17T00:15:56.380Z,986.87
2022-11-17T00:16:06.294Z,986.86
2022-11-17T00:16:16.295Z,986.83
2022-11-17T00:16:26.849Z,986.84
2022-11-17T00:16:36.303Z,986.81
2022-11-17T00:16:46.292Z,986.87
2022-11-17T00:16:56.296Z,986.91
2022-11-17T00:17:06.285Z,986.88
2022-11-17T00:17:16.282Z,986.86
2022-11-17T00:17:26.287Z,986.87
2022-11-17T00:17:36.295Z,986.87
2022-11-17T00:17:46.327Z,986.80
2022-11-17T00:17:56.307Z,986.88
2022-11-17T00:18:06.275Z,986.95
2022-11-17T00:18:16.329Z,986.93
2022-11-17T00:18:26.845Z,986.95
2022-11-17T00:18:36.457Z,986.94
2022-11-17T00:18:46.315Z,986.96
2022-11-17T00:18:56.282Z,986.94
2022-11-17T00:19:06.324Z,986.95
2022-11-17T00:19:16.289Z,986.97
2022-11-17T00:19:26.280Z,986.96
2022-11-17T00:19:36.269Z,986.89
2022-11-17T00:19:46.810Z,986.95
2022-11-17T00:19:56.271Z,986.87
2022-11-17T00:20:06.273Z,986.91
2022-11-17T00:20:16.303Z,986.92
2022-11-17T00:20:26.277Z,986.91
2022-11-17T00:20:36.824Z,986.92
2022-11-17T00:20:46.315Z,986.93
2022-11-17T00:20:56.271Z,986.94
2022-11-17T00:21:06.271Z,986.96
2022-11-17T00:21:16.263Z,986.95
2022-11-17T00:21:26.311Z,986.88
2022-11-17T00:21:36.275Z,986.88
2022-11-17T00:21:46.268Z,986.89
2022-11-17T00:21:56.281Z,986.93
2022-11-17T00:22:06.282Z,986.93
2022-11-17T00:22:16.270Z,986.94
2022-11-17T00:22:26.261Z,986.91
2022-11-17T00:22:36.317Z,986.94
2022-11-17T00:22:46.371Z,986.90
2022-11-17T00:22:56.282Z,986.87
2022-11-17T00:23:06.308Z,986.89
2022-11-17T00:23:16.255Z,986.89
2022-11-17T00:23:26.312Z,986.86
2022-11-17T00:23:36.637Z,986.90
2022-11-17T00:23:46.256Z,986.91
2022-11-17T00:23:56.268Z,986.86
2022-11-17T00:24:06.822Z,986.88
2022-11-17T00:24:16.332Z,986.90
2022-11-17T00:24:26.269Z,986.96
2022-11-17T00:24:36.250Z,986.95
2022-11-17T00:24:46.840Z,986.95
2022-11-17T00:24:56.273Z,986.91
2022-11-17T00:25:06.266Z,986.93
2022-11-17T00:25:16.263Z,986.91
2022-11-17T00:25:26.283Z,986.93
2022-11-17T00:25:36.260Z,986.94
2022-11-17T00:25:46.275Z,986.90
2022-11-17T00:25:56.267Z,986.92
2022-11-17T00:26:06.251Z,986.89
2022-11-17T00:26:16.250Z,986.93
2022-11-17T00:26:26.283Z,986.90
2022-11-17T00:26:36.278Z,986.91
2022-11-17T00:26:46.914Z,986.90
2022-11-17T00:26:56.346Z,986.86
2022-11-17T00:27:06.251Z,986.89
2022-11-17T00:27:16.243Z,986.89
2022-11-17T00:27:26.271Z,986.92
2022-11-17T00:27:36.363Z,986.94
2022-11-17T00:27:46.263Z,986.94
2022-11-17T00:27:56.241Z,986.93
2022-11-17T00:28:06.243Z,986.91
2022-11-17T00:28:16.242Z,986.95
2022-11-17T00:28:26.257Z,986.89
2022-11-17T00:28:36.367Z,986.91
2022-11-17T00:28:46.243Z,986.88
2022-11-17T00:28:56.816Z,986.92
2022-11-17T00:29:06.253Z,986.94
2022-11-17T00:29:16.277Z,986.93
2022-11-17T00:29:26.248Z,986.89
2022-11-17T00:29:39.162Z,986.91
2022-11-17T00:29:46.266Z,986.87
2022-11-17T00:29:56.242Z,986.93
2022-11-17T00:30:06.324Z,986.97
2022-11-17T00:30:16.254Z,986.99
2022-11-17T00:30:26.247Z,986.93
2022-11-17T00:30:36.247Z,986.91
2022-11-17T00:30:46.283Z,986.93
2022-11-17T00:30:56.858Z,986.93
2022-11-17T00:31:06.345Z,986.96
2022-11-17T00:31:16.234Z,986.95
2022-11-17T00:31:26.275Z,986.95
2022-11-17T00:31:36.241Z,986.92
2022-11-17T00:31:46.389Z,986.87
2022-11-17T00:31:56.226Z,986.93
2022-11-17T00:32:06.245Z,986.91
2022-11-17T00:32:16.229Z,986.90
2022-11-17T00:32:26.225Z,986.95
2022-11-17T00:32:36.234Z,986.95
2022-11-17T00:32:46.238Z,986.96
2022-11-17T00:32:56.823Z,986.91
2022-11-17T00:33:06.870Z,986.93
2022-11-17T00:33:16.211Z,986.90
2022-11-17T00:33:26.838Z,986.87
2022-11-17T00:33:36.597Z,986.89
2022-11-17T00:33:46.257Z,986.89
2022-11-17T00:33:56.291Z,986.87
2022-11-17T00:34:06.300Z,986.88
2022-11-17T00:34:16.208Z,986.91
2022-11-17T00:34:26.225Z,986.90
2022-11-17T00:34:36.226Z,986.89
2022-11-17T00:34:46.252Z,986.83
2022-11-17T00:34:56.245Z,986.88
2022-11-17T00:35:06.335Z,986.86
2022-11-17T00:35:16.817Z,986.88
2022-11-17T00:35:26.227Z,986.87
2022-11-17T00:35:36.208Z,986.83
2022-11-17T00:35:46.227Z,986.86
2022-11-17T00:35:56.223Z,986.86
2022-11-17T00:36:06.212Z,986.83
2022-11-17T00:36:16.344Z,986.84
2022-11-17T00:36:26.236Z,986.82
2022-11-17T00:36:36.203Z,986.83
2022-11-17T00:36:46.204Z,986.84
2022-11-17T00:36:56.237Z,986.87
2022-11-17T00:37:06.206Z,986.90
2022-11-17T00:37:16.823Z,986.90
2022-11-17T00:37:26.207Z,986.89
2022-11-17T00:37:36.194Z,986.88
2022-11-17T00:37:46.198Z,986.90
2022-11-17T00:37:56.213Z,986.92
2022-11-17T00:38:06.823Z,986.82
2022-11-17T00:38:16.208Z,986.86
2022-11-17T00:38:26.204Z,986.91
2022-11-17T00:38:36.207Z,986.86
2022-11-17T00:38:46.208Z,986.86
2022-11-17T00:38:56.248Z,986.89
2022-11-17T00:39:06.835Z,986.87
2022-11-17T00:39:16.832Z,986.84
2022-11-17T00:39:26.317Z,986.88
2022-11-17T00:39:36.203Z,986.87
2022-11-17T00:39:46.240Z,986.86
2022-11-17T00:40:00.486Z,986.89
2022-11-17T00:40:06.188Z,986.85
2022-11-17T00:40:16.236Z,986.86
2022-11-17T00:40:26.192Z,986.90
2022-11-17T00:40:36.221Z,986.87
2022-11-17T00:40:46.342Z,986.88
2022-11-17T00:40:56.185Z,986.83
2022-11-17T00:41:06.194Z,986.90
2022-11-17T00:41:16.203Z,986.89
2022-11-17T00:41:26.821Z,986.87
2022-11-17T00:41:36.194Z,986.91
2022-11-17T00:41:46.187Z,986.88
2022-11-17T00:41:56.212Z,986.86
2022-11-17T00:42:06.202Z,986.84
2022-11-17T00:42:16.229Z,986.85
2022-11-17T00:42:26.194Z,986.84
2022-11-17T00:42:36.199Z,986.86
2022-11-17T00:42:46.295Z,986.85
2022-11-17T00:42:56.183Z,986.86
2022-11-17T00:43:06.203Z,986.87
2022-11-17T00:43:16.175Z,986.89
2022-11-17T00:43:26.221Z,986.85
2022-11-17T00:43:36.521Z,986.84
2022-11-17T00:43:46.186Z,986.85
2022-11-17T00:43:56.182Z,986.84
2022-11-17T00:44:06.250Z,986.85
2022-11-17T00:44:16.197Z,986.86
2022-11-17T00:44:26.211Z,986.88
2022-11-17T00:44:36.212Z,986.85
2022-11-17T00:44:46.167Z,986.83
2022-11-17T00:44:56.207Z,986.82
2022-11-17T00:45:06.164Z,986.80
2022-11-17T00:45:16.190Z,986.83
2022-11-17T00:45:26.197Z,986.84
2022-11-17T00:45:36.835Z,986.86
2022-11-17T00:45:46.328Z,986.86
2022-11-17T00:45:56.312Z,986.88
2022-11-17T00:46:06.169Z,986.85
2022-11-17T00:46:16.168Z,986.87
2022-11-17T00:46:26.209Z,986.88
2022-11-17T00:46:36.205Z,986.86
2022-11-17T00:46:46.189Z,986.83
2022-11-17T00:46:56.205Z,986.83
2022-11-17T00:47:06.165Z,986.85
2022-11-17T00:47:16.818Z,986.87
2022-11-17T00:47:26.830Z,986.83
2022-11-17T00:47:36.982Z,986.81
2022-11-17T00:47:46.820Z,986.82
2022-11-17T00:47:56.197Z,986.83
2022-11-17T00:48:06.171Z,986.82
2022-11-17T00:48:16.191Z,986.86
2022-11-17T00:48:26.212Z,986.83
2022-11-17T00:48:36.153Z,986.84
2022-11-17T00:48:46.174Z,986.83
2022-11-17T00:48:56.146Z,986.83
2022-11-17T00:49:06.166Z,986.82
2022-11-17T00:49:16.248Z,986.81
2022-11-17T00:49:26.148Z,986.80
2022-11-17T00:49:36.163Z,986.81
2022-11-17T00:49:46.838Z,986.76
2022-11-17T00:49:56.143Z,986.80
2022-11-17T00:50:06.161Z,986.84
2022-11-17T00:50:16.154Z,986.82
2022-11-17T00:50:26.146Z,986.79
2022-11-17T00:50:36.842Z,986.82
2022-11-17T00:50:46.162Z,986.80
2022-11-17T00:50:56.919Z,986.76
2022-11-17T00:51:06.185Z,986.75
2022-11-17T00:51:16.208Z,986.81
2022-11-17T00:51:26.185Z,986.76
2022-11-17T00:51:36.239Z,986.77
2022-11-17T00:51:46.202Z,986.78
2022-11-17T00:51:56.367Z,986.78
2022-11-17T00:52:06.829Z,986.80
2022-11-17T00:52:16.144Z,986.78
2022-11-17T00:52:26.194Z,986.77
2022-11-17T00:52:36.135Z,986.80
2022-11-17T00:52:46.133Z,986.82
2022-11-17T00:52:56.175Z,986.76
2022-11-17T00:53:06.136Z,986.77
2022-11-17T00:53:16.131Z,986.77
2022-11-17T00:53:26.243Z,986.80
2022-11-17T00:53:36.509Z,986.75
2022-11-17T00:53:46.180Z,986.77
2022-11-17T00:53:56.845Z,986.81
2022-11-17T00:54:06.282Z,986.78
2022-11-17T00:54:16.139Z,986.77
2022-11-17T00:54:26.195Z,986.72
2022-11-17T00:54:36.124Z,986.73
2022-11-17T00:54:46.149Z,986.76
2022-11-17T00:54:56.152Z,986.74
2022-11-17T00:55:06.211Z,986.71
2022-11-17T00:55:16.210Z,986.71
2022-11-17T00:55:26.246Z,986.70
2022-11-17T00:55:36.149Z,986.74
2022-11-17T00:55:46.203Z,986.73
2022-11-17T00:55:56.818Z,986.70
2022-11-17T00:56:06.122Z,986.68
2022-11-17T00:56:16.143Z,986.65
2022-11-17T00:56:26.156Z,986.67
2022-11-17T00:56:36.199Z,986.65
2022-11-17T00:56:46.249Z,986.67
2022-11-17T00:56:56.274Z,986.61
2022-11-17T00:57:06.219Z,986.65
2022-11-17T00:57:16.159Z,986.63
2022-11-17T00:57:26.307Z,986.70
2022-11-17T00:57:36.132Z,986.65
2022-11-17T00:57:46.132Z,986.68
2022-11-17T00:57:56.438Z,986.64
2022-11-17T00:58:06.212Z,986.62
2022-11-17T00:58:16.258Z,986.64
2022-11-17T00:58:26.199Z,986.67
2022-11-17T00:58:36.242Z,986.62
2022-11-17T00:58:46.161Z,986.62
2022-11-17T00:58:56.202Z,986.67
2022-11-17T00:59:06.255Z,986.67
2022-11-17T00:59:16.227Z,986.69
2022-11-17T00:59:26.177Z,986.69
2022-11-17T00:59:36.391Z,986.67
2022-11-17T00:59:46.271Z,986.67
2022-11-17T00:59:56.217Z,986.64
2022-11-17T01:00:06.239Z,986.65
2022-11-17T01:00:16.110Z,986.69
2022-11-17T01:00:26.124Z,986.71
2022-11-17T01:00:36.161Z,986.64
2022-11-17T01:00:46.122Z,986.69
2022-11-17T01:00:56.113Z,986.67
2022-11-17T01:01:06.210Z,986.65
2022-11-17T01:01:16.153Z,986.69
2022-11-17T01:01:26.243Z,986.70
2022-11-17T01:01:36.205Z,986.68
2022-11-17T01:01:46.157Z,986.66
2022-11-17T01:01:56.179Z,986.67
2022-11-17T01:02:06.222Z,986.68
2022-11-17T01:02:16.196Z,986.67
2022-11-17T01:02:26.147Z,986.63
2022-11-17T01:02:36.093Z,986.71
2022-11-17T01:02:46.102Z,986.70
2022-11-17T01:02:56.124Z,986.72
2022-11-17T01:03:06.098Z,986.69
2022-11-17T01:03:16.196Z,986.70
2022-11-17T01:03:26.140Z,986.67
2022-11-17T01:03:36.567Z,986.66
2022-11-17T01:03:46.086Z,986.71
2022-11-17T01:03:56.102Z,986.69
2022-11-17T01:04:06.866Z,986.70
2022-11-17T01:04:16.832Z,986.69
2022-11-17T01:04:26.260Z,986.70
2022-11-17T01:04:36.151Z,986.69
2022-11-17T01:04:46.141Z,986.65
2022-11-17T01:04:56.116Z,986.70
2022-11-17T01:05:06.083Z,986.71
2022-11-17T01:05:16.085Z,986.72
2022-11-17T01:05:31.731Z,986.68
2022-11-17T01:05:36.092Z,986.69
2022-11-17T01:05:46.823Z,986.72
2022-11-17T01:05:56.125Z,986.70
2022-11-17T01:06:06.894Z,986.71
2022-11-17T01:06:16.832Z,986.73
2022-11-17T01:06:26.163Z,986.76
2022-11-17T01:06:36.086Z,986.74
2022-11-17T01:06:46.090Z,986.73
2022-11-17T01:06:56.160Z,986.74
2022-11-17T01:07:06.913Z,986.72
2022-11-17T01:07:16.132Z,986.73
2022-11-17T01:07:26.143Z,986.70
2022-11-17T01:07:36.144Z,986.72
2022-11-17T01:07:46.124Z,986.71
2022-11-17T01:07:56.077Z,986.72
2022-11-17T01:08:06.128Z,986.73
2022-11-17T01:08:16.104Z,986.71
2022-11-17T01:08:26.238Z,986.71
2022-11-17T01:08:36.075Z,986.72
2022-11-17T01:08:46.087Z,986.70
2022-11-17T01:08:56.068Z,986.67
2022-11-17T01:09:06.084Z,986.69
2022-11-17T01:09:16.095Z,986.72
2022-11-17T01:09:26.071Z,986.71
2022-11-17T01:09:36.075Z,986.71
2022-11-17T01:09:46.068Z,986.69
2022-11-17T01:09:56.118Z,986.71
2022-11-17T01:10:06.080Z,986.74
2022-11-17T01:10:16.074Z,986.72
2022-11-17T01:10:26.087Z,986.74
2022-11-17T01:10:36.306Z,986.76
2022-11-17T01:10:46.058Z,986.74
2022-11-17T01:10:56.198Z,986.77
2022-11-17T01:11:06.058Z,986.75
2022-11-17T01:11:16.085Z,986.68
2022-11-17T01:11:26.065Z,986.71
2022-11-17T01:11:36.065Z,986.68
2022-11-17T01:11:46.050Z,986.70
2022-11-17T01:11:56.068Z,986.70
2022-11-17T01:12:06.073Z,986.71
2022-11-17T01:12:16.261Z,986.70
2022-11-17T01:12:26.083Z,986.75
2022-11-17T01:12:36.835Z,986.73
2022-11-17T01:12:46.050Z,986.69
2022-11-17T01:12:56.079Z,986.72
2022-11-17T01:13:06.248Z,986.71
2022-11-17T01:13:16.053Z,986.71
2022-11-17T01:13:26.072Z,986.70
2022-11-17T01:13:36.465Z,986.72
2022-11-17T01:13:46.047Z,986.74
2022-11-17T01:13:56.047Z,986.69
2022-11-17T01:14:06.043Z,986.70
2022-11-17T01:14:16.065Z,986.71
2022-11-17T01:14:26.052Z,986.71
2022-11-17T01:14:36.855Z,986.71
2022-11-17T01:14:46.194Z,986.71
2022-11-17T01:14:56.057Z,986.67
2022-11-17T01:15:06.324Z,986.69
2022-11-17T01:15:16.112Z,986.70
2022-11-17T01:15:26.057Z,986.71
2022-11-17T01:15:36.039Z,986.70
2022-11-17T01:15:46.045Z,986.69
2022-11-17T01:15:56.066Z,986.67
2022-11-17T01:16:06.039Z,986.66
2022-11-17T01:16:16.073Z,986.68
2022-11-17T01:16:26.059Z,986.68
2022-11-17T01:16:36.050Z,986.66
2022-11-17T01:16:46.853Z,986.68
2022-11-17T01:16:56.037Z,986.68
2022-11-17T01:17:06.049Z,986.67
2022-11-17T01:17:16.074Z,986.69
2022-11-17T01:17:26.036Z,986.72
2022-11-17T01:17:36.049Z,986.63
2022-11-17T01:17:46.035Z,986.60
2022-11-17T01:17:56.031Z,986.63
2022-11-17T01:18:06.036Z,986.68
2022-11-17T01:18:16.865Z,986.66
2022-11-17T01:18:26.027Z,986.63
2022-11-17T01:18:36.048Z,986.61
2022-11-17T01:18:46.868Z,986.62
2022-11-17T01:18:56.031Z,986.60
2022-11-17T01:19:06.038Z,986.60
2022-11-17T01:19:16.831Z,986.61
2022-11-17T01:19:26.035Z,986.59
2022-11-17T01:19:36.832Z,986.57
2022-11-17T01:19:46.019Z,986.62
2022-11-17T01:19:56.022Z,986.60
2022-11-17T01:20:06.025Z,986.57
2022-11-17T01:20:16.095Z,986.59
2022-11-17T01:20:26.052Z,986.59
2022-11-17T01:20:36.023Z,986.62
2022-11-17T01:20:46.042Z,986.61
2022-11-17T01:20:56.153Z,986.64
2022-11-17T01:21:06.016Z,986.61
2022-11-17T01:21:16.105Z,986.62
2022-11-17T01:21:26.021Z,986.65
2022-11-17T01:21:36.016Z,986.58
2022-11-17T01:21:46.015Z,986.58
2022-11-17T01:21:56.027Z,986.64
2022-11-17T01:22:06.056Z,986.65
2022-11-17T01:22:16.017Z,986.60
2022-11-17T01:22:26.046Z,986.63
2022-11-17T01:22:36.031Z,986.60
2022-11-17T01:22:46.010Z,986.61
2022-11-17T01:22:56.096Z,986.64
2022-11-17T01:23:06.013Z,986.61
2022-11-17T01:23:16.012Z,986.63
2022-11-17T01:23:26.014Z,986.64
2022-11-17T01:23:36.370Z,986.66
2022-11-17T01:23:46.018Z,986.66
2022-11-17T01:23:56.016Z,986.63
2022-11-17T01:24:06.012Z,986.64
2022-11-17T01:24:16.014Z,986.61
2022-11-17T01:24:26.970Z,986.64
2022-11-17T01:24:36.001Z,986.62
2022-11-17T01:24:46.016Z,986.63
2022-11-17T01:24:56.857Z,986.65
2022-11-17T01:25:06.130Z,986.66
2022-11-17T01:25:16.008Z,986.69
2022-11-17T01:25:26.084Z,986.68
2022-11-17T01:25:36.001Z,986.66
2022-11-17T01:25:46.010Z,986.65
2022-11-17T01:25:56.021Z,986.65
2022-11-17T01:26:06.055Z,986.63
2022-11-17T01:26:16.017Z,986.64
2022-11-17T01:26:26.011Z,986.66
2022-11-17T01:26:35.993Z,986.65
2022-11-17T01:26:46.029Z,986.62
2022-11-17T01:26:56.000Z,986.64
2022-11-17T01:27:06.866Z,986.62
2022-11-17T01:27:16.007Z,986.65
2022-11-17T01:27:25.988Z,986.62
2022-11-17T01:27:36.032Z,986.59
2022-11-17T01:27:46.006Z,986.59
2022-11-17T01:27:55.996Z,986.63
2022-11-17T01:28:06.002Z,986.63
2022-11-17T01:28:16.035Z,986.58
2022-11-17T01:28:25.993Z,986.61
2022-11-17T01:28:36.001Z,986.59
2022-11-17T01:28:46.072Z,986.61
2022-11-17T01:28:56.027Z,986.59
2022-11-17T01:29:06.827Z,986.59
2022-11-17T01:29:16.162Z,986.59
2022-11-17T01:29:26.796Z,986.54
2022-11-17T01:29:35.999Z,986.53
2022-11-17T01:29:45.977Z,986.62
2022-11-17T01:29:55.993Z,986.63
2022-11-17T01:30:05.999Z,986.63
2022-11-17T01:30:15.982Z,986.63
2022-11-17T01:30:25.996Z,986.56
2022-11-17T01:30:36.026Z,986.60
2022-11-17T01:30:45.987Z,986.57
2022-11-17T01:30:56.004Z,986.61
2022-11-17T01:31:05.976Z,986.59
2022-11-17T01:31:16.869Z,986.61
2022-11-17T01:31:25.986Z,986.57
2022-11-17T01:31:36.022Z,986.59
2022-11-17T01:31:46.849Z,986.61
2022-11-17T01:31:55.988Z,986.60
2022-11-17T01:32:06.063Z,986.59
2022-11-17T01:32:15.991Z,986.61
2022-11-17T01:32:25.990Z,986.60
2022-11-17T01:32:36.022Z,986.61
2022-11-17T01:32:45.968Z,986.57
2022-11-17T01:32:55.986Z,986.60
2022-11-17T01:33:05.966Z,986.59
2022-11-17T01:33:17.795Z,986.62
2022-11-17T01:33:26.098Z,986.60
2022-11-17T01:33:36.348Z,986.58
2022-11-17T01:33:45.970Z,986.63
2022-11-17T01:33:55.995Z,986.61
2022-11-17T01:34:05.976Z,986.66
2022-11-17T01:34:15.989Z,986.65
2022-11-17T01:34:25.992Z,986.64
2022-11-17T01:34:36.012Z,986.61
2022-11-17T01:34:45.992Z,986.59
2022-11-17T01:34:55.981Z,986.61
2022-11-17T01:35:05.961Z,986.63
2022-11-17T01:35:15.969Z,986.59
2022-11-17T01:35:26.838Z,986.57
2022-11-17T01:35:35.960Z,986.63
2022-11-17T01:35:45.998Z,986.58
2022-11-17T01:35:55.959Z,986.60
2022-11-17T01:36:05.959Z,986.52
2022-11-17T01:36:16.895Z,986.54
2022-11-17T01:36:26.005Z,986.59
2022-11-17T01:36:35.964Z,986.57
2022-11-17T01:36:45.957Z,986.58
2022-11-17T01:36:55.963Z,986.57
2022-11-17T01:37:05.955Z,986.58
2022-11-17T01:37:16.027Z,986.60
2022-11-17T01:37:25.960Z,986.55
2022-11-17T01:37:36.057Z,986.56
2022-11-17T01:37:45.960Z,986.60
2022-11-17T01:37:55.960Z,986.59
2022-11-17T01:38:05.949Z,986.63
2022-11-17T01:38:15.992Z,986.61
2022-11-17T01:38:25.948Z,986.58
2022-11-17T01:38:35.963Z,986.60
2022-11-17T01:38:45.975Z,986.60
2022-11-17T01:38:55.973Z,986.53
2022-11-17T01:39:05.955Z,986.52
2022-11-17T01:39:15.941Z,986.57
2022-11-17T01:39:25.940Z,986.58
2022-11-17T01:39:36.885Z,986.59
2022-11-17T01:39:45.941Z,986.52
2022-11-17T01:39:56.858Z,986.55
2022-11-17T01:40:05.946Z,986.55
2022-11-17T01:40:15.946Z,986.57
2022-11-17T01:40:25.948Z,986.56
2022-11-17T01:40:36.032Z,986.54
2022-11-17T01:40:45.934Z,986.58
2022-11-17T01:40:55.983Z,986.55
2022-11-17T01:41:06.009Z,986.51
2022-11-17T01:41:15.993Z,986.51
2022-11-17T01:41:25.931Z,986.52
2022-11-17T01:41:36.841Z,986.52
2022-11-17T01:41:46.044Z,986.53
2022-11-17T01:41:55.940Z,986.55
2022-11-17T01:42:05.926Z,986.52
2022-11-17T01:42:15.943Z,986.51
2022-11-17T01:42:25.949Z,986.49
2022-11-17T01:42:35.929Z,986.47
2022-11-17T01:42:45.936Z,986.54
2022-11-17T01:42:55.964Z,986.52
2022-11-17T01:43:06.026Z,986.45
2022-11-17T01:43:15.935Z,986.45
2022-11-17T01:43:26.038Z,986.45
2022-11-17T01:43:37.296Z,986.49
2022-11-17T01:43:46.092Z,986.50
2022-11-17T01:43:55.930Z,986.47
2022-11-17T01:44:06.004Z,986.47
2022-11-17T01:44:15.924Z,986.46
2022-11-17T01:44:25.941Z,986.47
2022-11-17T01:44:35.932Z,986.45
2022-11-17T01:44:45.929Z,986.43
2022-11-17T01:44:55.992Z,986.44
2022-11-17T01:45:05.918Z,986.40
2022-11-17T01:45:15.935Z,986.47
2022-11-17T01:45:25.963Z,986.44
2022-11-17T01:45:35.913Z,986.42
2022-11-17T01:45:46.840Z,986.44
2022-11-17T01:45:56.059Z,986.47
2022-11-17T01:46:05.974Z,986.45
2022-11-17T01:46:15.917Z,986.44
2022-11-17T01:46:25.919Z,986.45
2022-11-17T01:46:35.924Z,986.44
2022-11-17T01:46:46.830Z,986.43
2022-11-17T01:47:00.781Z,986.46
2022-11-17T01:47:05.920Z,986.48
2022-11-17T01:47:15.921Z,986.43
2022-11-17T01:47:25.926Z,986.47
2022-11-17T01:47:35.977Z,986.45
2022-11-17T01:47:45.930Z,986.49
2022-11-17T01:47:56.835Z,986.47
2022-11-17T01:48:05.906Z,986.48
2022-11-17T01:48:15.911Z,986.48
2022-11-17T01:48:25.907Z,986.48
2022-11-17T01:48:35.908Z,986.52
2022-11-17T01:48:45.918Z,986.50
2022-11-17T01:48:56.801Z,986.51
2022-11-17T01:49:05.922Z,986.48
2022-11-17T01:49:15.919Z,986.46
2022-11-17T01:49:25.908Z,986.49
2022-11-17T01:49:36.844Z,986.50
2022-11-17T01:49:45.923Z,986.51
2022-11-17T01:49:56.832Z,986.49
2022-11-17T01:50:05.902Z,986.49
2022-11-17T01:50:15.909Z,986.50
2022-11-17T01:50:25.900Z,986.46
2022-11-17T01:50:35.911Z,986.51
2022-11-17T01:50:45.903Z,986.49
2022-11-17T01:50:55.909Z,986.47
2022-11-17T01:51:05.938Z,986.51
2022-11-17T01:51:15.944Z,986.49
2022-11-17T01:51:25.911Z,986.52
2022-11-17T01:51:35.904Z,986.49
2022-11-17T01:51:45.897Z,986.50
2022-11-17T01:51:55.944Z,986.50
2022-11-17T01:52:05.963Z,986.48
2022-11-17T01:52:15.899Z,986.47
2022-11-17T01:52:26.250Z,986.51
2022-11-17T01:52:35.887Z,986.53
2022-11-17T01:52:45.896Z,986.53
2022-11-17T01:52:55.925Z,986.49
2022-11-17T01:53:06.872Z,986.48
2022-11-17T01:53:15.891Z,986.47
2022-11-17T01:53:25.904Z,986.49
2022-11-17T01:53:36.199Z,986.53
2022-11-17T01:53:45.897Z,986.50
2022-11-17T01:53:56.855Z,986.49
2022-11-17T01:54:06.883Z,986.51
2022-11-17T01:54:15.898Z,986.54
2022-11-17T01:54:25.891Z,986.48
2022-11-17T01:54:35.882Z,986.50
2022-11-17T01:54:45.995Z,986.53
2022-11-17T01:54:55.883Z,986.52
2022-11-17T01:55:05.879Z,986.51
2022-11-17T01:55:16.018Z,986.50
2022-11-17T01:55:25.891Z,986.50
2022-11-17T01:55:35.878Z,986.53
2022-11-17T01:55:45.878Z,986.51
2022-11-17T01:55:55.916Z,986.46
2022-11-17T01:56:05.892Z,986.47
2022-11-17T01:56:15.967Z,986.48
2022-11-17T01:56:25.935Z,986.55
2022-11-17T01:56:35.872Z,986.52
2022-11-17T01:56:45.928Z,986.52
2022-11-17T01:56:55.872Z,986.51
2022-11-17T01:57:05.879Z,986.51
2022-11-17T01:57:15.880Z,986.56
2022-11-17T01:57:25.875Z,986.53
2022-11-17T01:57:35.888Z,986.50
2022-11-17T01:57:45.875Z,986.51
2022-11-17T01:57:55.872Z,986.48
2022-11-17T01:58:05.887Z,986.49
2022-11-17T01:58:16.040Z,986.52
2022-11-17T01:58:25.871Z,986.53
2022-11-17T01:58:35.992Z,986.51
2022-11-17T01:58:45.950Z,986.50
2022-11-17T01:58:55.863Z,986.53
2022-11-17T01:59:05.884Z,986.55
2022-11-17T01:59:15.863Z,986.55
2022-11-17T01:59:25.867Z,986.53
2022-11-17T01:59:35.861Z,986.57
2022-11-17T01:59:45.862Z,986.54
2022-11-17T01:59:55.856Z,986.52
2022-11-17T02:00:05.873Z,986.56
2022-11-17T02:00:15.875Z,986.51
2022-11-17T02:00:25.859Z,986.54
2022-11-17T02:00:35.852Z,986.54
2022-11-17T02:00:45.853Z,986.53
2022-11-17T02:00:55.863Z,986.52
2022-11-17T02:01:07.010Z,986.56
2022-11-17T02:01:16.850Z,986.50
2022-11-17T02:01:25.930Z,986.53
2022-11-17T02:01:36.041Z,986.56
2022-11-17T02:01:45.889Z,986.57
2022-11-17T02:01:56.163Z,986.54
2022-11-17T02:02:05.914Z,986.56
2022-11-17T02:02:15.876Z,986.56
2022-11-17T02:02:25.933Z,986.56
2022-11-17T02:02:35.844Z,986.52
2022-11-17T02:02:45.856Z,986.50
2022-11-17T02:02:55.857Z,986.50
2022-11-17T02:03:05.852Z,986.53
2022-11-17T02:03:15.857Z,986.50
2022-11-17T02:03:25.846Z,986.49
2022-11-17T02:03:36.095Z,986.52
2022-11-17T02:03:45.847Z,986.51
2022-11-17T02:03:55.840Z,986.54
2022-11-17T02:04:05.842Z,986.56
2022-11-17T02:04:15.879Z,986.50
2022-11-17T02:04:25.872Z,986.55
2022-11-17T02:04:35.848Z,986.53
2022-11-17T02:04:45.856Z,986.50